createdAt,value
2023-03-03T00:00:33.844Z,2.13
2023-03-03T00:03:05.558Z,2.12
2023-03-03T00:05:36.352Z,2.12
2023-03-03T00:08:05.963Z,2.11
2023-03-03T00:10:34.457Z,2.10
2023-03-03T00:13:03.341Z,2.10
2023-03-03T00:15:32.726Z,2.10
2023-03-03T00:18:01.689Z,2.09
2023-03-03T00:20:36.838Z,2.08
2023-03-03T00:23:21.687Z,2.07
2023-03-03T00:25:52.534Z,2.09
2023-03-03T00:28:25.604Z,2.09
2023-03-03T00:30:55.885Z,2.10
2023-03-03T00:33:29.468Z,2.10
2023-03-03T00:36:08.099Z,2.11
2023-03-03T00:38:37.659Z,2.12
2023-03-03T00:41:17.441Z,2.12
2023-03-03T00:43:45.871Z,2.12
2023-03-03T00:46:18.812Z,2.13
2023-03-03T00:48:48.659Z,2.17
2023-03-03T00:51:30.042Z,2.16
2023-03-03T00:53:59.860Z,2.17
2023-03-03T00:56:31.607Z,2.16
2023-03-03T00:59:00.893Z,2.15
2023-03-03T01:01:30.795Z,2.14
2023-03-03T01:03:59.267Z,2.12
2023-03-03T01:06:29.259Z,2.11
2023-03-03T01:08:57.857Z,2.09
2023-03-03T01:11:28.609Z,2.08
2023-03-03T01:13:57.814Z,2.06
2023-03-03T01:16:28.717Z,2.04
2023-03-03T01:18:57.205Z,2.03
2023-03-03T01:21:25.605Z,2.03
2023-03-03T01:23:55.827Z,2.03
2023-03-03T01:26:24.256Z,2.01
2023-03-03T01:28:52.946Z,2.00
2023-03-03T01:31:22.175Z,1.99
2023-03-03T01:33:50.682Z,2.00
2023-03-03T01:36:24.592Z,2.01
2023-03-03T01:38:54.837Z,2.01
2023-03-03T01:41:23.376Z,2.02
2023-03-03T01:43:52.356Z,2.01
2023-03-03T01:46:49.552Z,2.02
2023-03-03T01:49:21.792Z,2.03
2023-03-03T01:51:53.659Z,2.02
2023-03-03T01:54:29.730Z,2.02
2023-03-03T01:57:02.628Z,2.03
2023-03-03T01:59:35.572Z,2.02
2023-03-03T02:02:07.214Z,2.04
2023-03-03T02:04:36.506Z,2.04
2023-03-03T02:07:10.998Z,2.05
2023-03-03T02:09:50.834Z,2.07
2023-03-03T02:12:21.908Z,2.09
2023-03-03T02:14:50.850Z,2.11
2023-03-03T02:17:19.979Z,2.12
2023-03-03T02:19:55.687Z,2.13
2023-03-03T02:22:32.383Z,2.14
2023-03-03T02:25:07.263Z,2.14
2023-03-03T02:27:37.989Z,2.15
2023-03-03T02:30:12.630Z,2.14
2023-03-03T02:32:41.922Z,2.14
2023-03-03T02:35:32.635Z,2.13
2023-03-03T02:38:10.921Z,2.13
2023-03-03T02:40:44.221Z,2.13
2023-03-03T02:43:15.878Z,2.15
2023-03-03T02:45:45.450Z,2.16
2023-03-03T02:48:13.939Z,2.16
2023-03-03T02:50:42.489Z,2.17
2023-03-03T02:53:10.994Z,2.19
2023-03-03T02:55:40.535Z,2.18
2023-03-03T02:58:09.040Z,2.19
2023-03-03T03:00:39.148Z,2.19
2023-03-03T03:03:07.658Z,2.18
2023-03-03T03:05:40.074Z,2.17
2023-03-03T03:08:08.590Z,2.14
2023-03-03T03:10:37.824Z,2.14
2023-03-03T03:13:07.549Z,2.14
2023-03-03T03:15:36.550Z,2.13
2023-03-03T03:18:07.762Z,2.14
2023-03-03T03:20:40.028Z,2.16
2023-03-03T03:23:08.856Z,2.14
2023-03-03T03:25:42.736Z,2.13
2023-03-03T03:28:11.320Z,2.12
2023-03-03T03:30:40.766Z,2.12
2023-03-03T03:33:11.438Z,2.12
2023-03-03T03:35:45.522Z,2.11
2023-03-03T03:38:15.902Z,2.11
2023-03-03T03:40:44.905Z,2.10
2023-03-03T03:43:13.490Z,2.10
2023-03-03T03:45:43.936Z,2.09
2023-03-03T03:48:15.806Z,2.09
2023-03-03T03:50:46.394Z,2.09
2023-03-03T03:53:14.885Z,2.08
2023-03-03T03:55:43.343Z,2.07
2023-03-03T03:58:14.506Z,2.05
2023-03-03T04:00:43.775Z,2.03
2023-03-03T04:03:15.417Z,2.02
2023-03-03T04:05:45.728Z,2.01
2023-03-03T04:08:14.717Z,1.98
2023-03-03T04:10:44.445Z,1.98
2023-03-03T04:13:13.714Z,1.97
2023-03-03T04:15:43.125Z,1.95
2023-03-03T04:18:13.581Z,1.96
2023-03-03T04:20:43.283Z,1.96
2023-03-03T04:23:12.853Z,1.96
2023-03-03T04:25:41.374Z,1.94
2023-03-03T04:28:15.714Z,1.91
2023-03-03T04:30:45.167Z,1.91
2023-03-03T04:33:17.417Z,1.90
2023-03-03T04:35:46.715Z,1.89
2023-03-03T04:38:15.306Z,1.88
2023-03-03T04:40:44.773Z,1.86
2023-03-03T04:43:16.170Z,1.87
2023-03-03T04:45:45.341Z,1.86
2023-03-03T04:48:13.975Z,1.86
2023-03-03T04:50:44.436Z,1.87
2023-03-03T04:53:12.893Z,1.85
2023-03-03T04:55:43.153Z,1.84
2023-03-03T04:58:11.700Z,1.83
2023-03-03T05:00:41.324Z,1.81
2023-03-03T05:03:13.826Z,1.78
2023-03-03T05:05:45.385Z,1.75
2023-03-03T05:08:14.007Z,1.74
2023-03-03T05:10:42.494Z,1.73
2023-03-03T05:13:11.035Z,1.74
2023-03-03T05:15:41.649Z,1.72
2023-03-03T05:18:11.649Z,1.75
2023-03-03T05:20:42.030Z,1.76
2023-03-03T05:23:11.839Z,1.77
2023-03-03T05:25:41.591Z,1.77
2023-03-03T05:28:10.161Z,1.75
2023-03-03T05:30:42.198Z,1.74
2023-03-03T05:33:14.681Z,1.72
2023-03-03T05:35:43.582Z,1.71
2023-03-03T05:38:13.503Z,1.69
2023-03-03T05:40:41.985Z,1.68
2023-03-03T05:43:10.414Z,1.68
2023-03-03T05:45:38.865Z,1.66
2023-03-03T05:48:07.548Z,1.64
2023-03-03T05:50:35.999Z,1.64
2023-03-03T05:53:04.874Z,1.62
2023-03-03T05:55:34.785Z,1.60
2023-03-03T05:58:03.155Z,1.59
2023-03-03T06:00:31.616Z,1.57
2023-03-03T06:03:00.165Z,1.55
2023-03-03T06:05:28.664Z,1.55
2023-03-03T06:07:57.062Z,1.54
2023-03-03T06:10:25.646Z,1.53
2023-03-03T06:12:59.026Z,1.49
2023-03-03T06:15:27.656Z,1.48
2023-03-03T06:17:56.197Z,1.48
2023-03-03T06:20:24.633Z,1.47
2023-03-03T06:22:53.118Z,1.47
2023-03-03T06:25:21.576Z,1.46
2023-03-03T06:27:50.175Z,1.47
2023-03-03T06:30:20.307Z,1.46
2023-03-03T06:32:48.810Z,1.47
2023-03-03T06:35:18.360Z,1.48
2023-03-03T06:37:46.954Z,1.48
2023-03-03T06:40:15.648Z,1.49
2023-03-03T06:42:44.130Z,1.49
2023-03-03T06:45:13.378Z,1.49
2023-03-03T06:47:43.192Z,1.50
2023-03-03T06:50:13.131Z,1.50
2023-03-03T06:52:41.639Z,1.51
2023-03-03T06:55:17.402Z,1.50
2023-03-03T06:57:45.839Z,1.50
2023-03-03T07:00:20.137Z,1.51
2023-03-03T07:02:58.799Z,1.51
2023-03-03T07:05:29.887Z,1.51
2023-03-03T07:07:58.657Z,1.53
2023-03-03T07:10:29.422Z,1.54
2023-03-03T07:13:03.241Z,1.55
2023-03-03T07:15:35.589Z,1.55
2023-03-03T07:18:18.410Z,1.57
2023-03-03T07:20:46.887Z,1.58
2023-03-03T07:23:22.559Z,1.58
2023-03-03T07:25:52.554Z,1.58
2023-03-03T07:28:25.170Z,1.57
2023-03-03T07:30:54.156Z,1.57
2023-03-03T07:33:28.064Z,1.56
2023-03-03T07:35:58.213Z,1.56
2023-03-03T07:38:32.477Z,1.55
2023-03-03T07:41:04.251Z,1.56
2023-03-03T07:43:37.359Z,1.56
2023-03-03T07:46:27.830Z,1.57
2023-03-03T07:48:58.696Z,1.58
2023-03-03T07:51:29.409Z,1.60
2023-03-03T07:54:22.448Z,1.63
2023-03-03T07:56:50.929Z,1.67
2023-03-03T07:59:23.247Z,1.69
2023-03-03T08:01:55.321Z,1.71
2023-03-03T08:04:30.886Z,1.75
2023-03-03T08:07:01.380Z,1.77
2023-03-03T08:09:48.495Z,1.79
2023-03-03T08:12:29.906Z,1.85
2023-03-03T08:15:09.056Z,1.90
2023-03-03T08:17:40.046Z,1.96
2023-03-03T08:20:45.664Z,2.01
2023-03-03T08:23:15.893Z,2.05
2023-03-03T08:25:45.334Z,2.09
2023-03-03T08:28:14.034Z,2.11
2023-03-03T08:30:43.874Z,2.14
2023-03-03T08:33:12.593Z,2.15
2023-03-03T08:35:43.012Z,2.18
2023-03-03T08:38:14.664Z,2.20
2023-03-03T08:40:43.431Z,2.21
2023-03-03T08:43:14.505Z,2.22
2023-03-03T08:45:42.855Z,2.20
2023-03-03T08:48:11.243Z,2.16
2023-03-03T08:50:40.414Z,2.13
2023-03-03T08:53:11.136Z,2.11
2023-03-03T08:55:39.536Z,2.12
2023-03-03T08:58:07.905Z,2.10
2023-03-03T09:00:36.466Z,2.11
2023-03-03T09:03:07.074Z,2.11
2023-03-03T09:05:37.971Z,2.11
2023-03-03T09:08:08.102Z,2.11
2023-03-03T09:10:37.925Z,2.12
2023-03-03T09:13:12.377Z,2.13
2023-03-03T09:15:40.840Z,2.15
2023-03-03T09:18:17.219Z,2.17
2023-03-03T09:20:48.886Z,2.19
2023-03-03T09:23:39.183Z,2.21
2023-03-03T09:26:28.506Z,2.24
2023-03-03T09:29:02.285Z,2.24
2023-03-03T09:31:39.051Z,2.25
2023-03-03T09:34:20.594Z,2.27
2023-03-03T09:36:49.502Z,2.27
2023-03-03T09:39:20.203Z,2.27
2023-03-03T09:42:10.828Z,2.29
2023-03-03T09:45:00.632Z,2.32
2023-03-03T09:47:41.653Z,2.33
2023-03-03T09:50:21.845Z,2.36
2023-03-03T09:52:58.319Z,2.38
2023-03-03T09:55:41.150Z,2.43
2023-03-03T09:58:32.991Z,2.47
2023-03-03T10:01:16.511Z,2.50
2023-03-03T10:04:10.411Z,2.54
2023-03-03T10:06:42.604Z,2.56
2023-03-03T10:09:34.798Z,2.58
2023-03-03T10:12:08.865Z,2.62
2023-03-03T10:14:59.423Z,2.66
2023-03-03T10:17:41.924Z,2.70
2023-03-03T10:20:54.296Z,2.74
2023-03-03T10:23:36.026Z,2.76
2023-03-03T10:26:18.145Z,2.79
2023-03-03T10:29:11.985Z,2.83
2023-03-03T10:31:52.465Z,2.87
2023-03-03T10:34:35.094Z,2.91
2023-03-03T10:37:14.518Z,2.96
2023-03-03T10:39:59.377Z,3.01
2023-03-03T10:42:39.772Z,3.05
2023-03-03T10:45:36.338Z,3.09
2023-03-03T10:48:28.969Z,3.12
2023-03-03T10:51:09.823Z,3.14
2023-03-03T10:53:46.204Z,3.16
2023-03-03T10:56:28.769Z,3.18
2023-03-03T10:59:10.827Z,3.23
2023-03-03T11:01:50.058Z,3.26
2023-03-03T11:04:33.034Z,3.27
2023-03-03T11:07:08.050Z,3.28
2023-03-03T11:09:54.811Z,3.28
2023-03-03T11:12:34.805Z,3.27
2023-03-03T11:15:24.001Z,3.26
2023-03-03T11:18:08.857Z,3.26
2023-03-03T11:20:44.057Z,3.28
2023-03-03T11:23:30.774Z,3.32
2023-03-03T11:26:09.317Z,3.36
2023-03-03T11:28:56.173Z,3.41
2023-03-03T11:31:32.160Z,3.46
2023-03-03T11:34:08.086Z,3.49
2023-03-03T11:36:43.644Z,3.52
2023-03-03T11:39:15.304Z,3.57
2023-03-03T11:41:54.520Z,3.57
2023-03-03T11:44:26.551Z,3.56
2023-03-03T11:46:59.636Z,3.57
2023-03-03T11:49:35.059Z,3.58
2023-03-03T11:52:20.986Z,3.57
2023-03-03T11:54:53.541Z,3.58
2023-03-03T11:57:29.025Z,3.60
2023-03-03T12:00:17.309Z,3.65
2023-03-03T12:02:59.709Z,3.66
2023-03-03T12:05:47.622Z,3.67
2023-03-03T12:08:30.492Z,3.66
2023-03-03T12:11:04.054Z,3.67
2023-03-03T12:13:48.478Z,3.71
2023-03-03T12:16:26.808Z,3.76
2023-03-03T12:19:08.011Z,3.78
2023-03-03T12:21:52.305Z,3.83
2023-03-03T12:24:35.257Z,3.83
2023-03-03T12:27:15.264Z,3.81
2023-03-03T12:29:52.603Z,3.79
2023-03-03T12:32:35.202Z,3.79
2023-03-03T12:35:10.469Z,3.81
2023-03-03T12:37:52.403Z,3.83
2023-03-03T12:40:25.917Z,3.85
2023-03-03T12:43:06.830Z,3.85
2023-03-03T12:45:50.247Z,3.89
2023-03-03T12:48:22.486Z,3.91
2023-03-03T12:51:00.801Z,3.91
2023-03-03T12:53:41.467Z,3.89
2023-03-03T12:56:17.555Z,3.88
2023-03-03T12:58:55.676Z,3.91
2023-03-03T13:01:36.003Z,3.93
2023-03-03T13:04:10.787Z,3.95
2023-03-03T13:06:48.780Z,4.00
2023-03-03T13:09:32.942Z,4.11
2023-03-03T13:12:16.138Z,4.21
2023-03-03T13:14:50.509Z,4.29
2023-03-03T13:17:24.371Z,4.33
2023-03-03T13:19:59.981Z,4.34
2023-03-03T13:22:42.888Z,4.39
2023-03-03T13:25:28.779Z,4.41
2023-03-03T13:28:03.739Z,4.43
2023-03-03T13:30:35.852Z,4.44
2023-03-03T13:33:12.516Z,4.44
2023-03-03T13:35:45.578Z,4.49
2023-03-03T13:38:15.605Z,4.53
2023-03-03T13:40:47.263Z,4.62
2023-03-03T13:43:20.671Z,4.69
2023-03-03T13:45:59.629Z,4.72
2023-03-03T13:48:45.626Z,4.76
2023-03-03T13:51:24.493Z,4.78
2023-03-03T13:54:01.045Z,4.78
2023-03-03T13:56:42.200Z,4.86
2023-03-03T13:59:22.247Z,5.07
2023-03-03T14:01:59.142Z,5.31
2023-03-03T14:04:36.677Z,5.54
2023-03-03T14:07:14.306Z,5.73
2023-03-03T14:09:58.086Z,5.96
2023-03-03T14:12:39.254Z,6.16
2023-03-03T14:15:20.691Z,6.34
2023-03-03T14:18:01.302Z,6.52
2023-03-03T14:20:32.417Z,6.66
2023-03-03T14:23:03.721Z,6.82
2023-03-03T14:25:52.669Z,7.03
2023-03-03T14:28:23.272Z,7.19
2023-03-03T14:30:55.951Z,7.30
2023-03-03T14:33:30.915Z,7.47
2023-03-03T14:36:06.055Z,7.57
2023-03-03T14:38:46.671Z,7.64
2023-03-03T14:41:19.232Z,7.73
2023-03-03T14:43:57.646Z,7.85
2023-03-03T14:46:36.054Z,7.98
2023-03-03T14:49:06.919Z,8.12
2023-03-03T14:51:42.583Z,8.22
2023-03-03T14:54:22.119Z,8.31
2023-03-03T14:57:08.132Z,8.33
2023-03-03T14:59:36.606Z,8.35
2023-03-03T15:02:29.961Z,8.43
2023-03-03T15:05:22.969Z,8.46
2023-03-03T15:07:54.608Z,8.56
2023-03-03T15:10:36.046Z,8.64
2023-03-03T15:13:30.180Z,8.74
2023-03-03T15:16:11.380Z,8.91
2023-03-03T15:19:22.347Z,9.02
2023-03-03T15:22:00.429Z,9.14
2023-03-03T15:24:38.770Z,9.25
2023-03-03T15:27:14.505Z,9.40
2023-03-03T15:29:50.978Z,9.46
2023-03-03T15:32:30.838Z,9.49
2023-03-03T15:35:11.174Z,9.42
2023-03-03T15:37:47.101Z,9.33
2023-03-03T15:40:25.994Z,9.31
2023-03-03T15:43:03.070Z,9.29
2023-03-03T15:45:34.913Z,9.28
2023-03-03T15:48:21.796Z,9.24
2023-03-03T15:50:56.828Z,9.21
2023-03-03T15:53:40.993Z,9.13
2023-03-03T15:56:19.077Z,9.09
2023-03-03T15:59:25.328Z,9.03
2023-03-03T16:02:03.575Z,8.93
2023-03-03T16:04:36.080Z,8.88
2023-03-03T16:07:14.654Z,8.79
2023-03-03T16:09:56.678Z,8.71
2023-03-03T16:12:35.284Z,8.63
2023-03-03T16:15:23.056Z,8.52
2023-03-03T16:17:59.579Z,8.39
2023-03-03T16:20:36.133Z,8.27
2023-03-03T16:23:32.239Z,8.14
2023-03-03T16:26:11.360Z,8.00
2023-03-03T16:28:51.642Z,7.90
2023-03-03T16:31:24.009Z,7.78
2023-03-03T16:34:02.773Z,7.69
2023-03-03T16:36:39.457Z,7.59
2023-03-03T16:39:14.016Z,7.48
2023-03-03T16:41:52.317Z,7.39
2023-03-03T16:44:32.990Z,7.32
2023-03-03T16:47:14.888Z,7.21
2023-03-03T16:49:55.217Z,7.12
2023-03-03T16:52:43.775Z,7.05
2023-03-03T16:55:19.192Z,6.97
2023-03-03T16:58:03.067Z,6.87
2023-03-03T17:00:38.958Z,6.78
2023-03-03T17:03:35.754Z,6.69
2023-03-03T17:06:12.091Z,6.60
2023-03-03T17:09:04.672Z,6.52
2023-03-03T17:11:44.564Z,6.42
2023-03-03T17:14:33.296Z,6.32
2023-03-03T17:17:06.171Z,6.21
2023-03-03T17:19:50.854Z,6.11
2023-03-03T17:22:28.412Z,6.02
2023-03-03T17:25:06.550Z,5.92
2023-03-03T17:27:52.541Z,5.81
2023-03-03T17:30:29.142Z,5.69
2023-03-03T17:33:16.646Z,5.60
2023-03-03T17:35:58.359Z,5.48
2023-03-03T17:38:39.307Z,5.38
2023-03-03T17:41:12.500Z,5.26
2023-03-03T17:43:48.909Z,5.16
2023-03-03T17:46:27.328Z,5.04
2023-03-03T17:49:27.698Z,4.92
2023-03-03T17:52:25.017Z,4.83
2023-03-03T17:55:24.041Z,4.73
2023-03-03T17:58:09.576Z,4.63
2023-03-03T18:00:53.032Z,4.52
2023-03-03T18:03:36.910Z,4.44
2023-03-03T18:06:21.321Z,4.37
2023-03-03T18:09:13.706Z,4.32
2023-03-03T18:11:57.617Z,4.28
2023-03-03T18:14:56.009Z,4.22
2023-03-03T18:17:47.604Z,4.14
2023-03-03T18:20:31.453Z,4.01
2023-03-03T18:23:43.071Z,3.95
2023-03-03T18:26:35.081Z,3.86
2023-03-03T18:29:26.274Z,3.75
2023-03-03T18:32:19.641Z,3.64
2023-03-03T18:34:48.396Z,3.58
2023-03-03T18:37:41.808Z,3.51
2023-03-03T18:40:33.290Z,3.43
2023-03-03T18:43:40.969Z,3.35
2023-03-03T18:46:12.452Z,3.26
2023-03-03T18:48:51.065Z,3.19
2023-03-03T18:51:53.344Z,3.11
2023-03-03T18:54:30.941Z,3.06
2023-03-03T18:57:16.013Z,2.99
2023-03-03T18:59:54.835Z,2.90
2023-03-03T19:02:35.854Z,2.84
2023-03-03T19:05:20.199Z,2.78
2023-03-03T19:07:58.412Z,2.77
2023-03-03T19:10:55.510Z,2.74
2023-03-03T19:13:46.989Z,2.72
2023-03-03T19:16:37.799Z,2.70
2023-03-03T19:19:12.202Z,2.70
2023-03-03T19:21:42.799Z,2.68
2023-03-03T19:24:28.511Z,2.68
2023-03-03T19:27:30.433Z,2.67
2023-03-03T19:30:20.896Z,2.67
2023-03-03T19:33:19.424Z,2.68
2023-03-03T19:36:03.166Z,2.68
2023-03-03T19:38:40.495Z,2.69
2023-03-03T19:41:21.806Z,2.71
2023-03-03T19:44:03.140Z,2.71
2023-03-03T19:46:49.900Z,2.73
2023-03-03T19:49:28.860Z,2.75
2023-03-03T19:52:06.477Z,2.77
2023-03-03T19:54:54.628Z,2.80
2023-03-03T19:57:43.115Z,2.82
2023-03-03T20:00:21.117Z,2.85
2023-03-03T20:03:07.153Z,2.86
2023-03-03T20:05:43.910Z,2.88
2023-03-03T20:08:19.623Z,2.89
2023-03-03T20:10:55.133Z,2.93
2023-03-03T20:13:37.325Z,2.94
2023-03-03T20:16:20.581Z,2.96
2023-03-03T20:19:08.243Z,2.97
2023-03-03T20:21:42.960Z,3.00
2023-03-03T20:24:40.734Z,3.01
2023-03-03T20:27:18.808Z,3.03
2023-03-03T20:30:08.922Z,3.05
2023-03-03T20:32:49.699Z,3.08
2023-03-03T20:35:30.843Z,3.11
2023-03-03T20:38:10.666Z,3.13
2023-03-03T20:40:45.219Z,3.13
2023-03-03T20:43:29.468Z,3.16
2023-03-03T20:46:09.640Z,3.17
2023-03-03T20:48:59.658Z,3.18
2023-03-03T20:51:39.680Z,3.20
2023-03-03T20:54:15.536Z,3.22
2023-03-03T20:56:51.159Z,3.24
2023-03-03T20:59:28.356Z,3.26
2023-03-03T21:02:07.270Z,3.28
2023-03-03T21:04:36.383Z,3.28
2023-03-03T21:07:07.120Z,3.29
2023-03-03T21:09:38.806Z,3.31
2023-03-03T21:12:26.382Z,3.32
2023-03-03T21:15:01.081Z,3.32
2023-03-03T21:17:31.972Z,3.32
2023-03-03T21:20:21.220Z,3.34
2023-03-03T21:22:51.331Z,3.35
2023-03-03T21:25:49.493Z,3.38
2023-03-03T21:28:23.880Z,3.39
2023-03-03T21:31:08.814Z,3.40
2023-03-03T21:33:45.237Z,3.40
2023-03-03T21:36:16.132Z,3.41
2023-03-03T21:38:51.522Z,3.42
2023-03-03T21:41:21.430Z,3.41
2023-03-03T21:43:51.857Z,3.41
2023-03-03T21:46:21.897Z,3.40
2023-03-03T21:48:50.740Z,3.41
2023-03-03T21:51:20.582Z,3.43
2023-03-03T21:53:50.508Z,3.44
2023-03-03T21:56:18.955Z,3.44
2023-03-03T21:58:47.440Z,3.46
2023-03-03T22:01:16.023Z,3.46
2023-03-03T22:03:45.933Z,3.48
2023-03-03T22:06:14.504Z,3.49
2023-03-03T22:08:43.057Z,3.51
2023-03-03T22:11:15.474Z,3.51
2023-03-03T22:13:44.134Z,3.51
2023-03-03T22:16:13.106Z,3.51
2023-03-03T22:18:41.778Z,3.52
2023-03-03T22:21:10.321Z,3.53
2023-03-03T22:23:38.834Z,3.54
2023-03-03T22:26:07.408Z,3.54
2023-03-03T22:28:37.510Z,3.54
2023-03-03T22:31:07.222Z,3.54
2023-03-03T22:33:38.289Z,3.55
2023-03-03T22:36:08.304Z,3.56
2023-03-03T22:38:38.992Z,3.56
2023-03-03T22:41:08.428Z,3.58
2023-03-03T22:43:38.627Z,3.59
2023-03-03T22:46:07.433Z,3.58
2023-03-03T22:48:39.662Z,3.59
2023-03-03T22:51:08.263Z,3.59
2023-03-03T22:53:36.849Z,3.60
2023-03-03T22:56:05.772Z,3.58
2023-03-03T22:58:34.313Z,3.58
2023-03-03T23:01:05.126Z,3.59
2023-03-03T23:03:33.766Z,3.59
2023-03-03T23:06:02.302Z,3.60
2023-03-03T23:08:31.163Z,3.59
2023-03-03T23:10:59.802Z,3.60
2023-03-03T23:13:28.322Z,3.61
2023-03-03T23:16:00.022Z,3.61
2023-03-03T23:18:30.589Z,3.60
2023-03-03T23:20:59.157Z,3.61
2023-03-03T23:23:27.728Z,3.62
2023-03-03T23:25:56.826Z,3.62
2023-03-03T23:28:25.320Z,3.62
2023-03-03T23:30:53.925Z,3.63
2023-03-03T23:33:24.954Z,3.63
2023-03-03T23:35:55.120Z,3.63
2023-03-03T23:38:23.816Z,3.65
2023-03-03T23:40:52.274Z,3.67
2023-03-03T23:43:20.825Z,3.66
2023-03-03T23:45:49.392Z,3.67
2023-03-03T23:48:18.035Z,3.66
2023-03-03T23:50:46.526Z,3.67
2023-03-03T23:53:16.414Z,3.67
2023-03-03T23:55:45.609Z,3.67
2023-03-03T23:58:14.171Z,3.67
